Share

Sand Point, AK

Chignik (PAJC) Elev 16 ft | 56.31 °N, 158.37 °W | Change Station

Current weather conditions updated 9 minutes ago

Overcast
Overcast
36 °F
Feels Like 31 °F
N
6
Wind Variable Wind from SSE
Sunrise 7:31 AM
Sunset 9:54 PM
Moon Waning Gibbous

Today is forecast to be Cooler than yesterday. Mix of rain and snow showers.

Pressure 29.32 in
Visibility 3.0 miles
Clouds Mostly Cloudy 1100 ft
Overcast 1900 ft
Windchill 31 °F
Dew Point 30 °F
Humidity 81%
Rainfall 0.30 in
Snow Depth Not available.
UV 2 out of 16
Pollen Not available.
Air Quality Not available.
Flu Activity Sporadic
METAR PAJC 182116Z AUTO 15005KT 3SM BKN011 OVC019 02/M01 A2932 RMK AO1 P0002

More Conditions Fewer Conditions

Pressure 29.32 in
Visibility 3.0 miles
Clouds Mostly Cloudy 1100 ft
Overcast 1900 ft
Windchill 31 °F
Dew Point 30 °F
Humidity 81%
Rainfall 0.30 in
Snow Depth Not available.
UV 2 out of 16
Pollen Not available.
Air Quality Not available.
Flu Activity Sporadic
METAR PAJC 182116Z AUTO 15005KT 3SM BKN011 OVC019 02/M01 A2932 RMK AO1 P0002

More Conditions Fewer Conditions

10-Day Weather Forecast

Almanac

Astronomy

Apr. 18, 2014 Rise Set
Actual Time 7:31 AM AKDT 9:54 PM AKDT
Civil Twilight 6:51 AM AKDT 10:34 PM AKDT
Nautical Twilight 5:59 AM AKDT 11:26 PM AKDT
Astronomical Twilight 4:57 AM AKDT 12:29 AM AKDT
Moon 1:13 AM AKDT 9:40 AM AKDT
Length of Visible Light 15h 43m
Length of Day
14h 23m
Tomorrow will be 4m 24s longer.
Waning Gibbous, 85% of the Moon is Illuminated
Today
Waning Gibbous
Apr 22
Last Quarter
Apr 29
New
May 6
First Quarter
May 14
Full

Today's Extremes

State Highs State Lows

Community

  • What's for Lunch?
    What's for Lunch?
  • SUNRISE THROUGH THE TREES.
    SUNRISE THROUGH THE TREES.
  • Dog Wood Blossoms
    Dog Wood Blossoms
  • Morning Light
    Morning Light
  • New Day
    New Day

WunderPhotos

Upload Photos

1,702,511 photos uploaded!

WunderBlogs® & News

Nearby

Snow Depth

Station Depth Elevation
Port Graham 9 in 300 ft
Mcneil Canyon 10 in 1320 ft
Nuka Glacier 33 in 1250 ft
MF Bradley River 22 in 2300 ft
Cooper Lake 22 in 1200 ft

Coastal Water Temperatures

Place Temperature
No Stations Reporting

Earthquake Activity

City Distance Mag. Time & Date
No recent earthquake activity has been reported nearby.
Minimum magnitude displayed is 2.5.

Nearby Weather Stations

Station Location Temp. Windchill Dew Point Humidity Wind Precip. Elev Updated Type
CRN SHUMAGIN MAG OBS SAND POINT 1ENE AK , Sand Point, AK 33 °F 33 °F - - North  at  - 0.00 in / hr 240 ft 12:15 PM AKDT MADIS

Show More Stations Show Fewer Stations

What do you think?

We're not finished. Please let us know what you like, what you don't like, and what you are still missing.